Camp Wood, Texas
Current Conditions -  °F | °C
As of 7:10 PM on Thursday 18 Dec 2014 (Local Time) from KECU Reporting Station
Broken Clouds Broken Clouds  
Wind Chill: 63°   Ceiling: 5000
Heat Index: 63°   Visibility: 9mi
Dew Point: 52°   Wind: 0mph
Humidity: 68%   Direction: NA
Pressure: 30.06"   Gusts: NA
Location:  29.67°N, 100.01°W
Report Text: KECU 190110Z AUTO 00000KT 9SM SCT027 BKN050 17/11 A3006 RMK AO2
Loading
Personal Weather Stations






























Interactive Weather Map New forecast layout! Learn more

10-Day Weather Forecast

Advertisements
Track Severe Weather on mobile